Terminal Aerodrome Forecast
Issued by NWS Omaha/Valley, NE

Current Version | Previous Version | Text Only | Print | Product List | Glossary On
Versions: 1 2 3 4 5 6 7 8 9 10 11 12 13 14 15 16 17 18 19 20 21 22 23 24 25 26 27 28 29 30
000
FTUS43 KOAX 250819 AAB
TAFOMA
TAF AMD
KOMA 250819Z 2508/2606 31016G28KT P6SM OVC020
      TEMPO 2508/2510 6SM -RA BKN015
     FM251000 33022G32KT 6SM -RASN OVC015
      TEMPO 2510/2513 5SM -SN OVC008
     FM251300 33023G32KT P6SM OVC015
     FM251700 34020G30KT P6SM OVC025
     FM252100 35013KT P6SM BKN050
     FM260400 VRB04KT P6SM BKN250=

USA.gov is the U.S. government's official web portal to all federal, state and local government web resources and services.